PWSweather.com
Personal Weather Stations
Station Observations
133525
French Quarters West Seneca , West Seneca, NY 14224

French Quarters West Seneca West Seneca, NY 14224

Lat: 42.850058, Lon: -78.799754

Elevation: 603

Station Type: Davis Vantage Vue pro2

http://westsenecaweather.com/

Latest ConditionsUpdated 3:50:02 PM EDT Friday, Aug 18, 2017
Currently Today's Max Today's Min Today's Average
Temperature 78.1°F25.6°C 81.4°F27.4°C 72.8°F22.7°C 76.5°F24.7°C
Dew Point 68.3°F20.2°C 72.2°F22.3°C 68.0°F20.0°C 70.2°F21.2°C
Winds 4.6 mph N7.4 kmh N 10.4 mph NE16.7 kmh NE - 4.4 mph 7.1 kmh
Wind Gusts 10.4 mph16.7 kmh 21.9 mph35.2 kmh - -
Humidity 72% 95% 64% 81%
Pressure 29.70 in1005.8 mb 29.71 in1006.1 mb 29.68 in1005.1 mb -
Hour Temp Dew Point Humidity Winds Wind Gusts Pressure Precip Precip Rate Daily Precip Total
03:50 PM 78.1°F25.6°C 68.3°F20.2°C 72% 4.6 mph N7.4 kmh N 10.4 mph16.7 kmh 29.70 in1005.8 mb - 0.00 in0.0 mm 0.00 in0.0 mm
03:40 PM 78.2°F25.7°C 68.8°F20.4°C 73% 4.6 mph N7.4 kmh N 9.2 mph14.8 kmh 29.70 in1005.8 mb - 0.00 in0.0 mm 0.00 in0.0 mm
03:30 PM 77.5°F25.3°C 68.2°F20.1°C 73% 6.9 mph NNW11.1 kmh NNW 11.5 mph18.5 kmh 29.70 in1005.8 mb - 0.00 in0.0 mm 0.00 in0.0 mm
03:20 PM 77.7°F25.4°C 68.3°F20.2°C 73% 6.9 mph NE11.1 kmh NE 11.5 mph18.5 kmh 29.70 in1005.8 mb - 0.00 in0.0 mm 0.00 in0.0 mm
03:10 PM 77.6°F25.3°C 68.3°F20.2°C 73% 8.1 mph N13.0 kmh N 18.4 mph29.6 kmh 29.70 in1005.8 mb - 0.00 in0.0 mm 0.00 in0.0 mm
03:00 PM 77.9°F25.5°C 68.5°F20.3°C 73% 9.2 mph N14.8 kmh N 16.1 mph25.9 kmh 29.70 in1005.8 mb - 0.00 in0.0 mm 0.00 in0.0 mm
02:50 PM 78.0°F25.6°C 69.1°F20.6°C 74% 6.9 mph ENE11.1 kmh ENE 11.5 mph18.5 kmh 29.70 in1005.8 mb - 0.00 in0.0 mm 0.00 in0.0 mm
02:40 PM 77.9°F25.5°C 69.7°F20.9°C 76% 4.6 mph NW7.4 kmh NW 15.0 mph24.1 kmh 29.70 in1005.8 mb - 0.00 in0.0 mm 0.00 in0.0 mm
02:30 PM 78.8°F26.0°C 68.6°F20.3°C 71% 6.9 mph N11.1 kmh N 21.9 mph35.2 kmh 29.70 in1005.8 mb - 0.00 in0.0 mm 0.00 in0.0 mm
02:20 PM 78.0°F25.6°C 68.7°F20.4°C 73% 4.6 mph NE7.4 kmh NE 16.1 mph25.9 kmh 29.70 in1005.8 mb - 0.00 in0.0 mm 0.00 in0.0 mm
02:10 PM 77.9°F25.5°C 68.1°F20.1°C 72% 6.9 mph NNE11.1 kmh NNE 12.7 mph20.4 kmh 29.70 in1005.8 mb - 0.00 in0.0 mm 0.00 in0.0 mm
02:00 PM 78.2°F25.7°C 68.8°F20.4°C 73% 5.8 mph N9.3 kmh N 15.0 mph24.1 kmh 29.70 in1005.8 mb - 0.00 in0.0 mm 0.00 in0.0 mm
01:50 PM 78.4°F25.8°C 68.6°F20.3°C 72% 6.9 mph NE11.1 kmh NE 11.5 mph18.5 kmh 29.70 in1005.8 mb - 0.00 in0.0 mm 0.00 in0.0 mm
01:40 PM 78.2°F25.7°C 68.4°F20.2°C 72% 6.9 mph N11.1 kmh N 9.2 mph14.8 kmh 29.70 in1005.8 mb - 0.00 in0.0 mm 0.00 in0.0 mm
01:30 PM 78.1°F25.6°C 69.5°F20.8°C 75% 4.6 mph NE7.4 kmh NE 15.0 mph24.1 kmh 29.70 in1005.8 mb - 0.00 in0.0 mm 0.00 in0.0 mm
01:20 PM 77.9°F25.5°C 70.4°F21.3°C 78% 4.6 mph NE7.4 kmh NE 13.8 mph22.2 kmh 29.70 in1005.8 mb - 0.00 in0.0 mm 0.00 in0.0 mm
01:10 PM 78.1°F25.6°C 70.7°F21.5°C 78% 9.2 mph NE14.8 kmh NE 20.7 mph33.3 kmh 29.70 in1005.8 mb - 0.00 in0.0 mm 0.00 in0.0 mm
01:00 PM 79.3°F26.3°C 71.1°F21.7°C 76% 6.9 mph N11.1 kmh N 10.4 mph16.7 kmh 29.70 in1005.8 mb - 0.00 in0.0 mm 0.00 in0.0 mm
12:50 PM 79.2°F26.2°C 70.6°F21.4°C 75% 5.8 mph NNE9.3 kmh NNE 10.4 mph16.7 kmh 29.70 in1005.8 mb - 0.00 in0.0 mm 0.00 in0.0 mm
12:40 PM 79.8°F26.6°C 70.8°F21.6°C 74% 10.4 mph NE16.7 kmh NE 18.4 mph29.6 kmh 29.70 in1005.8 mb - 0.00 in0.0 mm 0.00 in0.0 mm
12:30 PM 80.7°F27.1°C 69.5°F20.8°C 69% 6.9 mph NE11.1 kmh NE 16.1 mph25.9 kmh 29.70 in1005.8 mb - 0.00 in0.0 mm 0.00 in0.0 mm
12:20 PM 80.9°F27.2°C 68.9°F20.5°C 67% 5.8 mph NE9.3 kmh NE 16.1 mph25.9 kmh 29.70 in1005.8 mb - 0.00 in0.0 mm 0.00 in0.0 mm
12:10 PM 81.3°F27.4°C 68.4°F20.2°C 65% 8.1 mph NNW13.0 kmh NNW 18.4 mph29.6 kmh 29.69 in1005.4 mb - 0.00 in0.0 mm 0.00 in0.0 mm
12:00 PM 81.3°F27.4°C 68.0°F20.0°C 64% 3.5 mph NNE5.6 kmh NNE 10.4 mph16.7 kmh 29.70 in1005.8 mb - 0.00 in0.0 mm 0.00 in0.0 mm
11:50 AM 81.4°F27.4°C 68.1°F20.1°C 64% 5.8 mph N9.3 kmh N 11.5 mph18.5 kmh 29.70 in1005.8 mb - 0.00 in0.0 mm 0.00 in0.0 mm
11:40 AM 81.1°F27.3°C 68.2°F20.1°C 65% 4.6 mph N7.4 kmh N 9.2 mph14.8 kmh 29.70 in1005.8 mb - 0.00 in0.0 mm 0.00 in0.0 mm
11:30 AM 81.0°F27.2°C 68.1°F20.1°C 65% 6.9 mph NNE11.1 kmh NNE 12.7 mph20.4 kmh 29.70 in1005.8 mb - 0.00 in0.0 mm 0.00 in0.0 mm
11:20 AM 80.4°F26.9°C 68.9°F20.5°C 68% 4.6 mph N7.4 kmh N 8.1 mph13.0 kmh 29.70 in1005.8 mb - 0.00 in0.0 mm 0.00 in0.0 mm
11:10 AM 80.2°F26.8°C 69.1°F20.6°C 69% 5.8 mph N9.3 kmh N 9.2 mph14.8 kmh 29.70 in1005.8 mb - 0.00 in0.0 mm 0.00 in0.0 mm
11:00 AM 80.1°F26.7°C 69.0°F20.6°C 69% 4.6 mph NW7.4 kmh NW 8.1 mph13.0 kmh 29.70 in1005.8 mb - 0.00 in0.0 mm 0.00 in0.0 mm
10:50 AM 80.2°F26.8°C 68.2°F20.1°C 67% 6.9 mph NNW11.1 kmh NNW 11.5 mph18.5 kmh 29.70 in1005.8 mb - 0.00 in0.0 mm 0.00 in0.0 mm
10:40 AM 79.8°F26.6°C 68.8°F20.4°C 69% 3.5 mph NNW5.6 kmh NNW 10.4 mph16.7 kmh 29.70 in1005.8 mb - 0.00 in0.0 mm 0.00 in0.0 mm
10:30 AM 79.6°F26.4°C 68.5°F20.3°C 69% 3.5 mph N5.6 kmh N 5.8 mph9.3 kmh 29.71 in1006.1 mb - 0.00 in0.0 mm 0.00 in0.0 mm
10:20 AM 79.3°F26.3°C 68.7°F20.4°C 70% 3.5 mph N5.6 kmh N 9.2 mph14.8 kmh 29.70 in1005.8 mb - 0.00 in0.0 mm 0.00 in0.0 mm
10:10 AM 79.4°F26.3°C 69.2°F20.7°C 71% 2.3 mph NNW3.7 kmh NNW 6.9 mph11.1 kmh 29.71 in1006.1 mb - 0.00 in0.0 mm 0.00 in0.0 mm
10:00 AM 78.9°F26.1°C 69.1°F20.6°C 72% 4.6 mph N7.4 kmh N 6.9 mph11.1 kmh 29.71 in1006.1 mb - 0.00 in0.0 mm 0.00 in0.0 mm
09:50 AM 78.4°F25.8°C 69.0°F20.6°C 73% 3.5 mph NNW5.6 kmh NNW 6.9 mph11.1 kmh 29.71 in1006.1 mb - 0.00 in0.0 mm 0.00 in0.0 mm
09:40 AM 78.5°F25.8°C 69.9°F21.1°C 75% 3.5 mph NNE5.6 kmh NNE 6.9 mph11.1 kmh 29.71 in1006.1 mb - 0.00 in0.0 mm 0.00 in0.0 mm
09:30 AM 78.0°F25.6°C 69.4°F20.8°C 75% 4.6 mph NE7.4 kmh NE 8.1 mph13.0 kmh 29.71 in1006.1 mb - 0.00 in0.0 mm 0.00 in0.0 mm
09:20 AM 77.7°F25.4°C 69.5°F20.8°C 76% 3.5 mph NNW5.6 kmh NNW 3.5 mph5.6 kmh 29.71 in1006.1 mb - 0.00 in0.0 mm 0.00 in0.0 mm
09:10 AM 77.5°F25.3°C 69.7°F20.9°C 77% 3.5 mph NW5.6 kmh NW 9.2 mph14.8 kmh 29.71 in1006.1 mb - 0.00 in0.0 mm 0.00 in0.0 mm
09:00 AM 77.1°F25.1°C 69.7°F20.9°C 78% 5.8 mph NNW9.3 kmh NNW 9.2 mph14.8 kmh 29.71 in1006.1 mb - 0.00 in0.0 mm 0.00 in0.0 mm
08:50 AM 76.8°F24.9°C 69.8°F21.0°C 79% 4.6 mph NNW7.4 kmh NNW 10.4 mph16.7 kmh 29.71 in1006.1 mb - 0.00 in0.0 mm 0.00 in0.0 mm
08:40 AM 76.4°F24.7°C 69.7°F20.9°C 80% 3.5 mph N5.6 kmh N 9.2 mph14.8 kmh 29.71 in1006.1 mb - 0.00 in0.0 mm 0.00 in0.0 mm
08:30 AM 76.1°F24.5°C 69.8°F21.0°C 81% 5.8 mph NNW9.3 kmh NNW 11.5 mph18.5 kmh 29.71 in1006.1 mb - 0.00 in0.0 mm 0.00 in0.0 mm
08:20 AM 75.9°F24.4°C 69.6°F20.9°C 81% 5.8 mph N9.3 kmh N 4.6 mph7.4 kmh 29.71 in1006.1 mb - 0.00 in0.0 mm 0.00 in0.0 mm
08:10 AM 75.6°F24.2°C 70.1°F21.2°C 83% 3.5 mph NNW5.6 kmh NNW 5.8 mph9.3 kmh 29.71 in1006.1 mb - 0.00 in0.0 mm 0.00 in0.0 mm
08:00 AM 75.2°F24.0°C 70.0°F21.1°C 84% 2.3 mph NNE3.7 kmh NNE 3.5 mph5.6 kmh 29.71 in1006.1 mb - 0.00 in0.0 mm 0.00 in0.0 mm
07:50 AM 75.0°F23.9°C 70.2°F21.2°C 85% 4.6 mph NNW7.4 kmh NNW 8.1 mph13.0 kmh 29.71 in1006.1 mb - 0.00 in0.0 mm 0.00 in0.0 mm
07:40 AM 74.7°F23.7°C 70.2°F21.2°C 86% 2.3 mph NNW3.7 kmh NNW 6.9 mph11.1 kmh 29.71 in1006.1 mb - 0.00 in0.0 mm 0.00 in0.0 mm
07:30 AM 74.4°F23.6°C 70.3°F21.3°C 87% 2.3 mph NNE3.7 kmh NNE 3.5 mph5.6 kmh 29.71 in1006.1 mb - 0.00 in0.0 mm 0.00 in0.0 mm
07:20 AM 74.1°F23.4°C 70.0°F21.1°C 87% 3.5 mph NW5.6 kmh NW 3.5 mph5.6 kmh 29.71 in1006.1 mb - 0.00 in0.0 mm 0.00 in0.0 mm
07:10 AM 73.9°F23.3°C 70.1°F21.2°C 88% 2.3 mph NW3.7 kmh NW 3.5 mph5.6 kmh 29.71 in1006.1 mb - 0.00 in0.0 mm 0.00 in0.0 mm
07:00 AM 73.8°F23.2°C 70.0°F21.1°C 88% 1.2 mph N1.9 kmh N 3.5 mph5.6 kmh 29.71 in1006.1 mb - 0.00 in0.0 mm 0.00 in0.0 mm
06:50 AM 73.9°F23.3°C 70.1°F21.2°C 88% 2.3 mph NW3.7 kmh NW 5.8 mph9.3 kmh 29.71 in1006.1 mb - 0.00 in0.0 mm 0.00 in0.0 mm
06:40 AM 73.9°F23.3°C 70.1°F21.2°C 88% 3.5 mph NW5.6 kmh NW 5.8 mph9.3 kmh 29.71 in1006.1 mb - 0.00 in0.0 mm 0.00 in0.0 mm
06:30 AM 74.0°F23.3°C 70.2°F21.2°C 88% 2.3 mph NNW3.7 kmh NNW 3.5 mph5.6 kmh 29.70 in1005.8 mb - 0.00 in0.0 mm 0.00 in0.0 mm
06:20 AM 74.3°F23.5°C 70.5°F21.4°C 88% 2.3 mph NW3.7 kmh NW 3.5 mph5.6 kmh 29.70 in1005.8 mb - 0.00 in0.0 mm 0.00 in0.0 mm
06:10 AM 74.4°F23.6°C 70.6°F21.4°C 88% 4.6 mph NNW7.4 kmh NNW 4.6 mph7.4 kmh 29.70 in1005.8 mb - 0.00 in0.0 mm 0.00 in0.0 mm
06:00 AM 74.6°F23.7°C 70.8°F21.6°C 88% 3.5 mph N5.6 kmh N 4.6 mph7.4 kmh 29.70 in1005.8 mb - 0.00 in0.0 mm 0.00 in0.0 mm
05:50 AM 74.7°F23.7°C 70.9°F21.6°C 88% 3.5 mph NNW5.6 kmh NNW 6.9 mph11.1 kmh 29.70 in1005.8 mb - 0.00 in0.0 mm 0.00 in0.0 mm
05:40 AM 74.8°F23.8°C 71.0°F21.7°C 88% 3.5 mph NNW5.6 kmh NNW 8.1 mph13.0 kmh 29.69 in1005.4 mb - 0.00 in0.0 mm 0.00 in0.0 mm
05:30 AM 74.9°F23.8°C 71.1°F21.7°C 88% 4.6 mph NW7.4 kmh NW 8.1 mph13.0 kmh 29.69 in1005.4 mb - 0.00 in0.0 mm 0.00 in0.0 mm
05:20 AM 75.0°F23.9°C 71.2°F21.8°C 88% 3.5 mph NNW5.6 kmh NNW 10.4 mph16.7 kmh 29.69 in1005.4 mb - 0.00 in0.0 mm 0.00 in0.0 mm
05:10 AM 75.0°F23.9°C 71.2°F21.8°C 88% 3.5 mph N5.6 kmh N 5.8 mph9.3 kmh 29.69 in1005.4 mb - 0.00 in0.0 mm 0.00 in0.0 mm
05:00 AM 75.0°F23.9°C 71.2°F21.8°C 88% 2.3 mph N3.7 kmh N 9.2 mph14.8 kmh 29.69 in1005.4 mb - 0.00 in0.0 mm 0.00 in0.0 mm
04:50 AM 75.0°F23.9°C 71.2°F21.8°C 88% 2.3 mph NNW3.7 kmh NNW 4.6 mph7.4 kmh 29.68 in1005.1 mb - 0.00 in0.0 mm 0.00 in0.0 mm
04:40 AM 75.1°F23.9°C 71.6°F22.0°C 89% 2.3 mph N3.7 kmh N 3.5 mph5.6 kmh 29.68 in1005.1 mb - 0.00 in0.0 mm 0.00 in0.0 mm
04:30 AM 75.2°F24.0°C 71.7°F22.1°C 89% 4.6 mph NW7.4 kmh NW 9.2 mph14.8 kmh 29.68 in1005.1 mb - 0.00 in0.0 mm 0.00 in0.0 mm
04:20 AM 75.2°F24.0°C 71.7°F22.1°C 89% 2.3 mph NE3.7 kmh NE 3.5 mph5.6 kmh 29.69 in1005.4 mb - 0.00 in0.0 mm 0.00 in0.0 mm
04:10 AM 75.1°F23.9°C 72.0°F22.2°C 90% 2.3 mph NNW3.7 kmh NNW 3.5 mph5.6 kmh 29.69 in1005.4 mb - 0.00 in0.0 mm 0.00 in0.0 mm
04:00 AM 75.0°F23.9°C 71.9°F22.2°C 90% 3.5 mph NW5.6 kmh NW 9.2 mph14.8 kmh 29.69 in1005.4 mb - 0.00 in0.0 mm 0.00 in0.0 mm
03:50 AM 75.0°F23.9°C 72.2°F22.3°C 91% 2.3 mph NNW3.7 kmh NNW 4.6 mph7.4 kmh 29.69 in1005.4 mb - 0.00 in0.0 mm 0.00 in0.0 mm
03:40 AM 74.7°F23.7°C 71.9°F22.2°C 91% 2.3 mph N3.7 kmh N 3.5 mph5.6 kmh 29.69 in1005.4 mb - 0.00 in0.0 mm 0.00 in0.0 mm
03:30 AM 74.8°F23.8°C 72.0°F22.2°C 91% 2.3 mph NW3.7 kmh NW 4.6 mph7.4 kmh 29.69 in1005.4 mb - 0.00 in0.0 mm 0.00 in0.0 mm
03:20 AM 74.9°F23.8°C 72.1°F22.3°C 91% 1.2 mph NNW1.9 kmh NNW 3.5 mph5.6 kmh 29.69 in1005.4 mb - 0.00 in0.0 mm 0.00 in0.0 mm
03:10 AM 74.8°F23.8°C 72.0°F22.2°C 91% 3.5 mph NNW5.6 kmh NNW 6.9 mph11.1 kmh 29.69 in1005.4 mb - 0.00 in0.0 mm 0.00 in0.0 mm
03:00 AM 74.7°F23.7°C 71.9°F22.2°C 91% 3.5 mph NW5.6 kmh NW 5.8 mph9.3 kmh 29.69 in1005.4 mb - 0.00 in0.0 mm 0.00 in0.0 mm
02:50 AM 74.6°F23.7°C 71.8°F22.1°C 91% 3.5 mph N5.6 kmh N 3.5 mph5.6 kmh 29.69 in1005.4 mb - 0.00 in0.0 mm 0.00 in0.0 mm
02:40 AM 74.5°F23.6°C 71.7°F22.1°C 91% 3.5 mph NW5.6 kmh NW 8.1 mph13.0 kmh 29.69 in1005.4 mb - 0.00 in0.0 mm 0.00 in0.0 mm
02:30 AM 74.4°F23.6°C 71.6°F22.0°C 91% 4.6 mph NW7.4 kmh NW 6.9 mph11.1 kmh 29.69 in1005.4 mb - 0.00 in0.0 mm 0.00 in0.0 mm
02:20 AM 74.3°F23.5°C 71.5°F21.9°C 91% 4.6 mph NNW7.4 kmh NNW 9.2 mph14.8 kmh 29.69 in1005.4 mb - 0.00 in0.0 mm 0.00 in0.0 mm
02:10 AM 74.2°F23.4°C 71.4°F21.9°C 91% 3.5 mph NNW5.6 kmh NNW 5.8 mph9.3 kmh 29.69 in1005.4 mb - 0.00 in0.0 mm 0.00 in0.0 mm
02:00 AM 74.2°F23.4°C 71.4°F21.9°C 91% 3.5 mph NNW5.6 kmh NNW 5.8 mph9.3 kmh 29.69 in1005.4 mb - 0.00 in0.0 mm 0.00 in0.0 mm
01:50 AM 74.1°F23.4°C 71.3°F21.8°C 91% 4.6 mph NNW7.4 kmh NNW 11.5 mph18.5 kmh 29.69 in1005.4 mb - 0.00 in0.0 mm 0.00 in0.0 mm
01:40 AM 73.8°F23.2°C 71.3°F21.8°C 92% 4.6 mph NNW7.4 kmh NNW 11.5 mph18.5 kmh 29.69 in1005.4 mb - 0.00 in0.0 mm 0.00 in0.0 mm
01:30 AM 73.9°F23.3°C 71.1°F21.7°C 91% 3.5 mph NNW5.6 kmh NNW 5.8 mph9.3 kmh 29.69 in1005.4 mb - 0.00 in0.0 mm 0.00 in0.0 mm
01:20 AM 73.9°F23.3°C 71.4°F21.9°C 92% 6.9 mph NNW11.1 kmh NNW 10.4 mph16.7 kmh 29.69 in1005.4 mb - 0.00 in0.0 mm 0.00 in0.0 mm
01:10 AM 73.8°F23.2°C 71.3°F21.8°C 92% 3.5 mph NNW5.6 kmh NNW 8.1 mph13.0 kmh 29.70 in1005.8 mb - 0.00 in0.0 mm 0.00 in0.0 mm
01:00 AM 73.6°F23.1°C 71.1°F21.7°C 92% 3.5 mph N5.6 kmh N 5.8 mph9.3 kmh 29.70 in1005.8 mb - 0.00 in0.0 mm 0.00 in0.0 mm
12:50 AM 73.3°F22.9°C 71.2°F21.8°C 93% 2.3 mph N3.7 kmh N 3.5 mph5.6 kmh 29.70 in1005.8 mb - 0.00 in0.0 mm 0.00 in0.0 mm
12:40 AM 73.2°F22.9°C 71.1°F21.7°C 93% 4.6 mph NW7.4 kmh NW 6.9 mph11.1 kmh 29.70 in1005.8 mb - 0.00 in0.0 mm 0.00 in0.0 mm
12:30 AM 73.2°F22.9°C 71.1°F21.7°C 93% 2.3 mph NW3.7 kmh NW 3.5 mph5.6 kmh 29.71 in1006.1 mb - 0.00 in0.0 mm 0.00 in0.0 mm
12:20 AM 73.1°F22.8°C 71.3°F21.8°C 94% 2.3 mph NW3.7 kmh NW 3.5 mph5.6 kmh 29.71 in1006.1 mb - 0.00 in0.0 mm 0.00 in0.0 mm
12:10 AM 73.0°F22.8°C 71.2°F21.8°C 94% 2.3 mph NW3.7 kmh NW 3.5 mph5.6 kmh 29.71 in1006.1 mb - 0.00 in0.0 mm 0.00 in0.0 mm
12:00 AM 72.8°F22.7°C 71.3°F21.8°C 95% 5.8 mph NW9.3 kmh NW 9.2 mph14.8 kmh 29.71 in1006.1 mb - 0.00 in0.0 mm 0.00 in0.0 mm